sensor_id;sensor_type;location;lat;lon;timestamp;P1;durP1;ratioP1;P2;durP2;ratioP2
12650;SDS011;6390;49.400;8.670;2023-05-07T03:33:06;1.67;;;1.40;;
12650;SDS011;6390;49.400;8.670;2023-05-07T03:35:32;1.52;;;1.42;;
12650;SDS011;6390;49.400;8.670;2023-05-07T03:37:58;2.08;;;1.60;;
12650;SDS011;6390;49.400;8.670;2023-05-07T03:40:25;1.42;;;1.33;;
12650;SDS011;6390;49.400;8.670;2023-05-07T03:42:51;1.95;;;1.40;;
12650;SDS011;6390;49.400;8.670;2023-05-07T03:45:17;2.05;;;1.52;;
12650;SDS011;6390;49.400;8.670;2023-05-07T03:47:43;2.38;;;1.50;;
12650;SDS011;6390;49.400;8.670;2023-05-07T03:50:09;1.77;;;1.52;;
12650;SDS011;6390;49.400;8.670;2023-05-07T03:52:35;1.60;;;1.50;;
12650;SDS011;6390;49.400;8.670;2023-05-07T03:55:01;1.60;;;1.50;;
12650;SDS011;6390;49.400;8.670;2023-05-07T04:00:25;1.70;;;1.50;;
12650;SDS011;6390;49.400;8.670;2023-05-07T04:02:51;1.73;;;1.48;;
12650;SDS011;6390;49.400;8.670;2023-05-07T04:05:17;1.92;;;1.60;;
12650;SDS011;6390;49.400;8.670;2023-05-07T04:07:44;3.35;;;1.60;;
12650;SDS011;6390;49.400;8.670;2023-05-07T04:10:10;2.17;;;1.70;;
12650;SDS011;6390;49.400;8.670;2023-05-07T04:12:36;1.73;;;1.60;;
12650;SDS011;6390;49.400;8.670;2023-05-07T04:15:02;2.22;;;1.70;;
12650;SDS011;6390;49.400;8.670;2023-05-07T04:17:28;1.50;;;1.40;;
12650;SDS011;6390;49.400;8.670;2023-05-07T04:19:54;1.60;;;1.50;;
12650;SDS011;6390;49.400;8.670;2023-05-07T04:22:20;1.40;;;1.30;;
12650;SDS011;6390;49.400;8.670;2023-05-07T04:24:46;1.50;;;1.40;;
12650;SDS011;6390;49.400;8.670;2023-05-07T04:27:12;1.83;;;1.40;;
12650;SDS011;6390;49.400;8.670;2023-05-07T04:29:38;1.48;;;1.35;;
12650;SDS011;6390;49.400;8.670;2023-05-07T04:32:07;1.40;;;1.30;;
12650;SDS011;6390;49.400;8.670;2023-05-07T04:34:34;1.50;;;1.40;;
12650;SDS011;6390;49.400;8.670;2023-05-07T04:37:00;1.75;;;1.40;;
12650;SDS011;6390;49.400;8.670;2023-05-07T04:39:26;1.60;;;1.50;;
12650;SDS011;6390;49.400;8.670;2023-05-07T04:41:52;1.40;;;1.30;;
12650;SDS011;6390;49.400;8.670;2023-05-07T04:44:18;1.88;;;1.60;;
12650;SDS011;6390;49.400;8.670;2023-05-07T04:46:45;2.50;;;1.50;;
12650;SDS011;6390;49.400;8.670;2023-05-07T04:49:11;1.80;;;1.50;;
12650;SDS011;6390;49.400;8.670;2023-05-07T04:51:37;1.50;;;1.40;;
12650;SDS011;6390;49.400;8.670;2023-05-07T04:54:03;2.35;;;1.33;;
12650;SDS011;6390;49.400;8.670;2023-05-07T04:56:29;1.40;;;1.30;;
12650;SDS011;6390;49.400;8.670;2023-05-07T04:58:55;1.58;;;1.48;;
12650;SDS011;6390;49.400;8.670;2023-05-07T05:01:21;3.38;;;1.55;;
12650;SDS011;6390;49.400;8.670;2023-05-07T05:03:47;1.30;;;1.20;;
12650;SDS011;6390;49.400;8.670;2023-05-07T05:06:13;1.50;;;1.40;;
12650;SDS011;6390;49.400;8.670;2023-05-07T05:08:39;1.35;;;1.25;;
12650;SDS011;6390;49.400;8.670;2023-05-07T05:11:06;1.88;;;1.50;;
12650;SDS011;6390;49.400;8.670;2023-05-07T05:13:32;1.52;;;1.20;;
12650;SDS011;6390;49.400;8.670;2023-05-07T05:15:58;1.80;;;1.60;;
12650;SDS011;6390;49.400;8.670;2023-05-07T05:18:24;1.50;;;1.40;;
12650;SDS011;6390;49.400;8.670;2023-05-07T05:20:51;1.80;;;1.60;;
12650;SDS011;6390;49.400;8.670;2023-05-07T05:23:17;2.03;;;1.50;;
12650;SDS011;6390;49.400;8.670;2023-05-07T05:25:43;1.67;;;1.58;;
12650;SDS011;6390;49.400;8.670;2023-05-07T05:28:10;1.60;;;1.50;;
12650;SDS011;6390;49.400;8.670;2023-05-07T05:30:36;1.60;;;1.50;;
12650;SDS011;6390;49.400;8.670;2023-05-07T05:33:02;1.73;;;1.40;;
12650;SDS011;6390;49.400;8.670;2023-05-07T05:35:29;1.48;;;1.38;;
12650;SDS011;6390;49.400;8.670;2023-05-07T05:37:55;1.75;;;1.50;;
12650;SDS011;6390;49.400;8.670;2023-05-07T05:40:21;1.60;;;1.45;;
12650;SDS011;6390;49.400;8.670;2023-05-07T05:42:47;1.58;;;1.48;;
12650;SDS011;6390;49.400;8.670;2023-05-07T05:45:14;2.05;;;1.50;;
12650;SDS011;6390;49.400;8.670;2023-05-07T05:47:40;2.38;;;1.60;;
12650;SDS011;6390;49.400;8.670;2023-05-07T05:50:06;1.63;;;1.52;;
12650;SDS011;6390;49.400;8.670;2023-05-07T05:52:33;1.70;;;1.30;;
12650;SDS011;6390;49.400;8.670;2023-05-07T05:54:59;2.75;;;1.48;;
12650;SDS011;6390;49.400;8.670;2023-05-07T05:57:25;1.65;;;1.55;;
12650;SDS011;6390;49.400;8.670;2023-05-07T05:59:51;1.77;;;1.35;;
12650;SDS011;6390;49.400;8.670;2023-05-07T06:02:17;1.60;;;1.48;;
12650;SDS011;6390;49.400;8.670;2023-05-07T06:04:43;1.58;;;1.38;;
12650;SDS011;6390;49.400;8.670;2023-05-07T06:07:10;1.58;;;1.45;;
12650;SDS011;6390;49.400;8.670;2023-05-07T06:09:36;1.63;;;1.52;;
12650;SDS011;6390;49.400;8.670;2023-05-07T06:12:02;2.38;;;1.65;;
12650;SDS011;6390;49.400;8.670;2023-05-07T06:14:28;2.10;;;1.90;;
12650;SDS011;6390;49.400;8.670;2023-05-07T06:16:55;1.67;;;1.50;;
12650;SDS011;6390;49.400;8.670;2023-05-07T06:19:21;1.50;;;1.40;;
12650;SDS011;6390;49.400;8.670;2023-05-07T06:21:48;1.50;;;1.40;;
12650;SDS011;6390;49.400;8.670;2023-05-07T06:24:14;1.40;;;1.30;;
12650;SDS011;6390;49.400;8.670;2023-05-07T06:26:41;1.40;;;1.30;;
12650;SDS011;6390;49.400;8.670;2023-05-07T06:29:07;1.40;;;1.30;;
12650;SDS011;6390;49.400;8.670;2023-05-07T06:31:33;1.35;;;1.25;;
12650;SDS011;6390;49.400;8.670;2023-05-07T06:33:59;1.90;;;1.50;;
12650;SDS011;6390;49.400;8.670;2023-05-07T06:36:27;1.50;;;1.40;;
12650;SDS011;6390;49.400;8.670;2023-05-07T06:38:53;1.48;;;1.38;;
12650;SDS011;6390;49.400;8.670;2023-05-07T06:41:19;1.75;;;1.15;;
12650;SDS011;6390;49.400;8.670;2023-05-07T06:43:45;1.77;;;1.42;;
12650;SDS011;6390;49.400;8.670;2023-05-07T06:46:11;2.53;;;1.30;;
12650;SDS011;6390;49.400;8.670;2023-05-07T06:48:38;1.30;;;1.20;;
12650;SDS011;6390;49.400;8.670;2023-05-07T06:51:04;1.20;;;1.10;;
12650;SDS011;6390;49.400;8.670;2023-05-07T06:53:30;1.20;;;1.10;;
12650;SDS011;6390;49.400;8.670;2023-05-07T06:55:56;1.30;;;1.20;;
12650;SDS011;6390;49.400;8.670;2023-05-07T06:58:22;2.05;;;1.30;;
12650;SDS011;6390;49.400;8.670;2023-05-07T07:00:48;1.55;;;1.10;;
12650;SDS011;6390;49.400;8.670;2023-05-07T07:03:14;1.23;;;1.13;;
12650;SDS011;6390;49.400;8.670;2023-05-07T07:05:41;1.17;;;1.10;;
12650;SDS011;6390;49.400;8.670;2023-05-07T07:08:07;1.10;;;1.00;;
12650;SDS011;6390;49.400;8.670;2023-05-07T07:10:33;0.90;;;0.90;;
12650;SDS011;6390;49.400;8.670;2023-05-07T07:12:59;1.95;;;1.10;;
12650;SDS011;6390;49.400;8.670;2023-05-07T07:15:25;1.65;;;1.20;;
12650;SDS011;6390;49.400;8.670;2023-05-07T07:17:52;0.90;;;0.90;;
12650;SDS011;6390;49.400;8.670;2023-05-07T07:20:18;1.20;;;1.10;;
12650;SDS011;6390;49.400;8.670;2023-05-07T07:22:44;1.10;;;1.00;;
12650;SDS011;6390;49.400;8.670;2023-05-07T07:25:10;1.20;;;1.08;;
12650;SDS011;6390;49.400;8.670;2023-05-07T07:27:36;1.23;;;1.10;;
12650;SDS011;6390;49.400;8.670;2023-05-07T07:30:05;0.93;;;0.93;;
12650;SDS011;6390;49.400;8.670;2023-05-07T07:32:32;1.10;;;1.00;;
12650;SDS011;6390;49.400;8.670;2023-05-07T07:34:59;1.20;;;1.00;;
12650;SDS011;6390;49.400;8.670;2023-05-07T07:37:25;1.13;;;1.02;;
12650;SDS011;6390;49.400;8.670;2023-05-07T07:39:51;0.93;;;0.88;;
12650;SDS011;6390;49.400;8.670;2023-05-07T07:42:17;1.30;;;1.20;;
12650;SDS011;6390;49.400;8.670;2023-05-07T07:44:43;1.27;;;1.10;;
12650;SDS011;6390;49.400;8.670;2023-05-07T07:47:10;1.10;;;1.00;;
12650;SDS011;6390;49.400;8.670;2023-05-07T07:49:36;2.13;;;1.20;;
12650;SDS011;6390;49.400;8.670;2023-05-07T07:52:02;1.17;;;1.08;;
12650;SDS011;6390;49.400;8.670;2023-05-07T07:54:28;1.20;;;1.10;;
12650;SDS011;6390;49.400;8.670;2023-05-07T07:56:55;1.55;;;1.15;;
12650;SDS011;6390;49.400;8.670;2023-05-07T07:59:21;2.17;;;1.10;;
12650;SDS011;6390;49.400;8.670;2023-05-07T08:01:47;0.93;;;0.93;;
12650;SDS011;6390;49.400;8.670;2023-05-07T08:04:15;1.00;;;1.00;;
12650;SDS011;6390;49.400;8.670;2023-05-07T08:06:41;1.20;;;1.10;;
12650;SDS011;6390;49.400;8.670;2023-05-07T08:09:07;3.20;;;1.10;;
12650;SDS011;6390;49.400;8.670;2023-05-07T08:11:33;1.20;;;1.10;;
12650;SDS011;6390;49.400;8.670;2023-05-07T08:14:00;1.80;;;1.30;;
12650;SDS011;6390;49.400;8.670;2023-05-07T08:16:26;1.23;;;1.10;;
12650;SDS011;6390;49.400;8.670;2023-05-07T08:18:53;3.17;;;1.30;;
12650;SDS011;6390;49.400;8.670;2023-05-07T08:21:19;0.93;;;0.93;;
12650;SDS011;6390;49.400;8.670;2023-05-07T08:23:45;0.90;;;0.90;;
12650;SDS011;6390;49.400;8.670;2023-05-07T08:26:11;1.27;;;1.17;;
12650;SDS011;6390;49.400;8.670;2023-05-07T08:28:37;1.40;;;1.30;;
12650;SDS011;6390;49.400;8.670;2023-05-07T08:31:04;1.30;;;1.20;;
12650;SDS011;6390;49.400;8.670;2023-05-07T08:33:31;1.92;;;1.20;;
12650;SDS011;6390;49.400;8.670;2023-05-07T08:35:57;1.40;;;1.17;;
12650;SDS011;6390;49.400;8.670;2023-05-07T08:38:23;1.95;;;1.42;;
12650;SDS011;6390;49.400;8.670;2023-05-07T08:40:49;2.85;;;1.00;;
12650;SDS011;6390;49.400;8.670;2023-05-07T08:43:15;1.20;;;1.10;;
12650;SDS011;6390;49.400;8.670;2023-05-07T08:45:42;1.20;;;1.10;;
12650;SDS011;6390;49.400;8.670;2023-05-07T08:48:14;1.27;;;1.17;;
12650;SDS011;6390;49.400;8.670;2023-05-07T08:50:42;1.30;;;1.05;;
12650;SDS011;6390;49.400;8.670;2023-05-07T08:53:08;1.10;;;1.10;;
12650;SDS011;6390;49.400;8.670;2023-05-07T08:55:34;1.33;;;1.23;;
12650;SDS011;6390;49.400;8.670;2023-05-07T08:58:00;1.30;;;1.20;;
12650;SDS011;6390;49.400;8.670;2023-05-07T09:00:26;2.47;;;1.30;;
12650;SDS011;6390;49.400;8.670;2023-05-07T09:02:53;2.30;;;1.00;;
12650;SDS011;6390;49.400;8.670;2023-05-07T09:05:19;1.27;;;1.17;;
12650;SDS011;6390;49.400;8.670;2023-05-07T09:07:45;0.98;;;0.98;;
12650;SDS011;6390;49.400;8.670;2023-05-07T09:10:12;1.20;;;1.10;;
12650;SDS011;6390;49.400;8.670;2023-05-07T09:12:38;1.75;;;1.40;;
12650;SDS011;6390;49.400;8.670;2023-05-07T09:15:04;1.13;;;1.02;;
12650;SDS011;6390;49.400;8.670;2023-05-07T09:17:31;0.90;;;0.90;;
12650;SDS011;6390;49.400;8.670;2023-05-07T09:20:04;1.27;;;1.00;;
12650;SDS011;6390;49.400;8.670;2023-05-07T09:22:40;1.02;;;0.90;;
12650;SDS011;6390;49.400;8.670;2023-05-07T09:25:07;1.02;;;0.93;;
12650;SDS011;6390;49.400;8.670;2023-05-07T09:27:34;1.50;;;1.33;;
12650;SDS011;6390;49.400;8.670;2023-05-07T09:30:06;0.82;;;0.82;;
12650;SDS011;6390;49.400;8.670;2023-05-07T09:32:36;1.30;;;1.20;;
12650;SDS011;6390;49.400;8.670;2023-05-07T09:35:05;1.20;;;1.10;;
12650;SDS011;6390;49.400;8.670;2023-05-07T09:37:35;0.90;;;0.90;;
12650;SDS011;6390;49.400;8.670;2023-05-07T09:40:01;2.00;;;0.90;;
12650;SDS011;6390;49.400;8.670;2023-05-07T09:42:28;1.00;;;0.90;;
12650;SDS011;6390;49.400;8.670;2023-05-07T09:44:54;1.00;;;0.90;;
12650;SDS011;6390;49.400;8.670;2023-05-07T09:47:21;1.45;;;1.00;;
12650;SDS011;6390;49.400;8.670;2023-05-07T09:49:50;1.33;;;0.98;;
12650;SDS011;6390;49.400;8.670;2023-05-07T09:52:22;1.00;;;0.80;;
12650;SDS011;6390;49.400;8.670;2023-05-07T09:54:50;0.63;;;0.63;;
12650;SDS011;6390;49.400;8.670;2023-05-07T09:57:16;0.88;;;0.60;;
12650;SDS011;6390;49.400;8.670;2023-05-07T09:59:42;0.90;;;0.90;;
12650;SDS011;6390;49.400;8.670;2023-05-07T10:02:09;0.80;;;0.80;;
12650;SDS011;6390;49.400;8.670;2023-05-07T10:04:35;0.70;;;0.70;;
12650;SDS011;6390;49.400;8.670;2023-05-07T10:07:03;0.70;;;0.70;;
12650;SDS011;6390;49.400;8.670;2023-05-07T10:09:29;0.85;;;0.57;;
12650;SDS011;6390;49.400;8.670;2023-05-07T10:11:55;1.02;;;0.90;;
12650;SDS011;6390;49.400;8.670;2023-05-07T10:14:22;0.60;;;0.60;;
12650;SDS011;6390;49.400;8.670;2023-05-07T10:16:48;0.68;;;0.68;;
12650;SDS011;6390;49.400;8.670;2023-05-07T10:19:14;0.80;;;0.80;;
12650;SDS011;6390;49.400;8.670;2023-05-07T10:21:44;0.65;;;0.65;;
12650;SDS011;6390;49.400;8.670;2023-05-07T10:24:25;0.47;;;0.47;;
12650;SDS011;6390;49.400;8.670;2023-05-07T10:26:54;1.58;;;0.77;;
12650;SDS011;6390;49.400;8.670;2023-05-07T10:32:33;0.47;;;0.47;;
12650;SDS011;6390;49.400;8.670;2023-05-07T10:35:14;0.90;;;0.60;;
12650;SDS011;6390;49.400;8.670;2023-05-07T10:37:47;0.73;;;0.73;;
12650;SDS011;6390;49.400;8.670;2023-05-07T10:40:14;1.27;;;0.60;;
12650;SDS011;6390;49.400;8.670;2023-05-07T10:42:52;0.52;;;0.52;;
12650;SDS011;6390;49.400;8.670;2023-05-07T10:45:24;1.10;;;0.68;;
12650;SDS011;6390;49.400;8.670;2023-05-07T10:48:05;0.47;;;0.47;;
12650;SDS011;6390;49.400;8.670;2023-05-07T10:50:41;0.85;;;0.63;;
12650;SDS011;6390;49.400;8.670;2023-05-07T10:55:46;0.80;;;0.80;;
12650;SDS011;6390;49.400;8.670;2023-05-07T10:58:27;0.70;;;0.70;;
12650;SDS011;6390;49.400;8.670;2023-05-07T11:00:58;0.63;;;0.60;;
12650;SDS011;6390;49.400;8.670;2023-05-07T11:03:27;1.48;;;0.90;;
12650;SDS011;6390;49.400;8.670;2023-05-07T11:11:39;0.80;;;0.80;;
12650;SDS011;6390;49.400;8.670;2023-05-07T11:14:13;0.73;;;0.73;;
12650;SDS011;6390;49.400;8.670;2023-05-07T11:16:52;0.50;;;0.50;;
12650;SDS011;6390;49.400;8.670;2023-05-07T11:22:35;1.13;;;0.82;;
12650;SDS011;6390;49.400;8.670;2023-05-07T11:25:05;1.02;;;0.80;;
12650;SDS011;6390;49.400;8.670;2023-05-07T11:27:32;0.90;;;0.90;;
12650;SDS011;6390;49.400;8.670;2023-05-07T11:29:58;1.00;;;1.00;;
12650;SDS011;6390;49.400;8.670;2023-05-07T11:32:26;2.05;;;0.82;;
12650;SDS011;6390;49.400;8.670;2023-05-07T11:34:55;1.00;;;0.90;;
12650;SDS011;6390;49.400;8.670;2023-05-07T11:37:23;0.77;;;0.77;;
12650;SDS011;6390;49.400;8.670;2023-05-07T11:39:50;0.93;;;0.70;;
12650;SDS011;6390;49.400;8.670;2023-05-07T11:42:33;0.93;;;0.90;;
12650;SDS011;6390;49.400;8.670;2023-05-07T11:45:02;1.23;;;0.75;;
12650;SDS011;6390;49.400;8.670;2023-05-07T11:47:30;0.80;;;0.80;;
12650;SDS011;6390;49.400;8.670;2023-05-07T11:50:01;2.28;;;1.00;;
12650;SDS011;6390;49.400;8.670;2023-05-07T11:52:30;0.77;;;0.77;;
12650;SDS011;6390;49.400;8.670;2023-05-07T11:54:57;1.08;;;0.98;;
12650;SDS011;6390;49.400;8.670;2023-05-07T11:57:25;2.42;;;1.00;;
12650;SDS011;6390;49.400;8.670;2023-05-07T11:59:55;1.00;;;1.00;;
12650;SDS011;6390;49.400;8.670;2023-05-07T12:02:27;1.00;;;0.93;;
12650;SDS011;6390;49.400;8.670;2023-05-07T12:04:54;0.77;;;0.77;;
12650;SDS011;6390;49.400;8.670;2023-05-07T12:07:20;0.75;;;0.73;;
12650;SDS011;6390;49.400;8.670;2023-05-07T12:09:47;0.80;;;0.80;;
12650;SDS011;6390;49.400;8.670;2023-05-07T12:12:13;1.35;;;1.05;;
12650;SDS011;6390;49.400;8.670;2023-05-07T12:14:42;0.93;;;0.93;;
12650;SDS011;6390;49.400;8.670;2023-05-07T12:17:10;1.95;;;0.90;;
12650;SDS011;6390;49.400;8.670;2023-05-07T12:19:38;1.10;;;1.00;;
12650;SDS011;6390;49.400;8.670;2023-05-07T12:22:07;1.38;;;0.90;;
12650;SDS011;6390;49.400;8.670;2023-05-07T12:24:47;1.88;;;0.95;;
12650;SDS011;6390;49.400;8.670;2023-05-07T12:27:22;0.80;;;0.80;;
12650;SDS011;6390;49.400;8.670;2023-05-07T12:29:50;1.02;;;0.90;;
12650;SDS011;6390;49.400;8.670;2023-05-07T12:32:17;0.70;;;0.70;;
12650;SDS011;6390;49.400;8.670;2023-05-07T12:34:44;1.38;;;1.00;;
12650;SDS011;6390;49.400;8.670;2023-05-07T12:37:11;0.90;;;0.80;;
12650;SDS011;6390;49.400;8.670;2023-05-07T12:39:38;0.95;;;0.90;;
12650;SDS011;6390;49.400;8.670;2023-05-07T12:42:14;1.48;;;0.95;;
12650;SDS011;6390;49.400;8.670;2023-05-07T12:44:41;0.70;;;0.70;;
12650;SDS011;6390;49.400;8.670;2023-05-07T12:47:11;1.85;;;0.95;;
12650;SDS011;6390;49.400;8.670;2023-05-07T12:49:37;2.42;;;0.90;;
12650;SDS011;6390;49.400;8.670;2023-05-07T12:52:05;1.10;;;0.93;;
12650;SDS011;6390;49.400;8.670;2023-05-07T12:54:35;1.10;;;1.00;;
12650;SDS011;6390;49.400;8.670;2023-05-07T12:57:07;0.90;;;0.90;;
12650;SDS011;6390;49.400;8.670;2023-05-07T12:59:38;0.93;;;0.93;;
12650;SDS011;6390;49.400;8.670;2023-05-07T13:02:06;1.02;;;1.00;;
12650;SDS011;6390;49.400;8.670;2023-05-07T13:04:33;1.30;;;0.93;;
12650;SDS011;6390;49.400;8.670;2023-05-07T13:07:00;1.30;;;0.93;;
12650;SDS011;6390;49.400;8.670;2023-05-07T13:09:27;0.90;;;0.90;;
12650;SDS011;6390;49.400;8.670;2023-05-07T13:11:54;1.25;;;0.90;;
12650;SDS011;6390;49.400;8.670;2023-05-07T13:14:20;1.10;;;1.00;;
12650;SDS011;6390;49.400;8.670;2023-05-07T13:16:46;0.88;;;0.88;;
12650;SDS011;6390;49.400;8.670;2023-05-07T13:19:13;1.08;;;0.80;;
12650;SDS011;6390;49.400;8.670;2023-05-07T13:21:39;1.20;;;0.95;;
12650;SDS011;6390;49.400;8.670;2023-05-07T13:24:05;0.95;;;0.80;;
12650;SDS011;6390;49.400;8.670;2023-05-07T13:26:32;0.98;;;0.90;;
12650;SDS011;6390;49.400;8.670;2023-05-07T13:28:58;0.95;;;0.85;;
12650;SDS011;6390;49.400;8.670;2023-05-07T13:31:24;0.85;;;0.85;;
12650;SDS011;6390;49.400;8.670;2023-05-07T13:33:50;1.50;;;1.00;;
12650;SDS011;6390;49.400;8.670;2023-05-07T13:36:17;1.02;;;0.88;;
12650;SDS011;6390;49.400;8.670;2023-05-07T13:38:43;1.05;;;1.00;;
12650;SDS011;6390;49.400;8.670;2023-05-07T13:41:09;0.90;;;0.90;;
12650;SDS011;6390;49.400;8.670;2023-05-07T13:43:37;1.10;;;0.90;;
12650;SDS011;6390;49.400;8.670;2023-05-07T13:46:03;1.95;;;1.00;;
12650;SDS011;6390;49.400;8.670;2023-05-07T13:48:29;1.00;;;0.90;;
12650;SDS011;6390;49.400;8.670;2023-05-07T13:50:55;1.08;;;0.98;;
12650;SDS011;6390;49.400;8.670;2023-05-07T13:53:22;0.80;;;0.80;;
12650;SDS011;6390;49.400;8.670;2023-05-07T13:55:48;1.52;;;0.93;;
12650;SDS011;6390;49.400;8.670;2023-05-07T13:58:14;1.05;;;0.85;;
12650;SDS011;6390;49.400;8.670;2023-05-07T14:00:40;0.90;;;0.90;;
12650;SDS011;6390;49.400;8.670;2023-05-07T14:03:06;2.00;;;1.20;;
12650;SDS011;6390;49.400;8.670;2023-05-07T14:05:32;1.02;;;1.00;;
12650;SDS011;6390;49.400;8.670;2023-05-07T14:07:58;1.00;;;0.90;;
12650;SDS011;6390;49.400;8.670;2023-05-07T14:10:24;1.08;;;0.98;;
12650;SDS011;6390;49.400;8.670;2023-05-07T14:12:51;1.58;;;1.20;;
12650;SDS011;6390;49.400;8.670;2023-05-07T14:15:17;1.17;;;1.08;;
12650;SDS011;6390;49.400;8.670;2023-05-07T14:17:44;1.20;;;1.10;;
12650;SDS011;6390;49.400;8.670;2023-05-07T14:20:10;2.95;;;1.40;;
12650;SDS011;6390;49.400;8.670;2023-05-07T14:22:37;1.98;;;1.20;;
12650;SDS011;6390;49.400;8.670;2023-05-07T14:25:03;2.83;;;1.50;;
12650;SDS011;6390;49.400;8.670;2023-05-07T14:27:30;4.32;;;1.33;;
12650;SDS011;6390;49.400;8.670;2023-05-07T14:29:56;4.25;;;1.65;;
12650;SDS011;6390;49.400;8.670;2023-05-07T14:32:22;3.75;;;1.45;;
12650;SDS011;6390;49.400;8.670;2023-05-07T14:34:49;6.70;;;1.55;;
12650;SDS011;6390;49.400;8.670;2023-05-07T14:37:15;3.88;;;1.50;;
12650;SDS011;6390;49.400;8.670;2023-05-07T14:39:42;1.95;;;1.20;;
12650;SDS011;6390;49.400;8.670;2023-05-07T14:42:09;3.22;;;1.02;;
12650;SDS011;6390;49.400;8.670;2023-05-07T14:44:36;1.38;;;1.20;;
12650;SDS011;6390;49.400;8.670;2023-05-07T14:47:02;2.92;;;1.20;;
12650;SDS011;6390;49.400;8.670;2023-05-07T14:49:28;1.75;;;1.20;;
12650;SDS011;6390;49.400;8.670;2023-05-07T14:51:56;1.30;;;1.13;;
12650;SDS011;6390;49.400;8.670;2023-05-07T14:54:24;1.58;;;1.10;;
12650;SDS011;6390;49.400;8.670;2023-05-07T14:56:51;2.55;;;1.00;;
12650;SDS011;6390;49.400;8.670;2023-05-07T14:59:17;0.80;;;0.80;;
12650;SDS011;6390;49.400;8.670;2023-05-07T15:01:46;1.20;;;1.10;;
12650;SDS011;6390;49.400;8.670;2023-05-07T15:04:15;1.15;;;1.05;;
12650;SDS011;6390;49.400;8.670;2023-05-07T15:06:41;2.08;;;1.30;;
12650;SDS011;6390;49.400;8.670;2023-05-07T15:09:07;1.42;;;1.10;;
12650;SDS011;6390;49.400;8.670;2023-05-07T15:11:33;3.20;;;1.23;;
12650;SDS011;6390;49.400;8.670;2023-05-07T15:14:00;2.63;;;1.40;;
12650;SDS011;6390;49.400;8.670;2023-05-07T15:16:26;1.52;;;1.42;;
12650;SDS011;6390;49.400;8.670;2023-05-07T15:18:52;1.85;;;1.42;;
12650;SDS011;6390;49.400;8.670;2023-05-07T15:21:18;2.05;;;1.48;;
12650;SDS011;6390;49.400;8.670;2023-05-07T15:23:44;2.28;;;1.55;;
12650;SDS011;6390;49.400;8.670;2023-05-07T15:26:10;2.15;;;1.50;;
12650;SDS011;6390;49.400;8.670;2023-05-07T15:28:36;4.68;;;1.67;;
12650;SDS011;6390;49.400;8.670;2023-05-07T15:31:04;5.55;;;2.00;;
12650;SDS011;6390;49.400;8.670;2023-05-07T15:33:30;6.65;;;2.03;;
12650;SDS011;6390;49.400;8.670;2023-05-07T15:35:57;4.10;;;1.70;;
12650;SDS011;6390;49.400;8.670;2023-05-07T15:38:24;1.80;;;1.65;;
12650;SDS011;6390;49.400;8.670;2023-05-07T15:40:51;3.22;;;1.70;;
12650;SDS011;6390;49.400;8.670;2023-05-07T15:43:17;3.88;;;1.95;;
12650;SDS011;6390;49.400;8.670;2023-05-07T15:45:43;1.40;;;1.30;;
12650;SDS011;6390;49.400;8.670;2023-05-07T15:48:10;2.70;;;1.52;;
12650;SDS011;6390;49.400;8.670;2023-05-07T15:50:36;2.83;;;1.50;;
12650;SDS011;6390;49.400;8.670;2023-05-07T15:53:03;4.78;;;1.42;;
12650;SDS011;6390;49.400;8.670;2023-05-07T15:55:32;1.45;;;1.15;;
12650;SDS011;6390;49.400;8.670;2023-05-07T15:57:58;1.65;;;1.40;;
12650;SDS011;6390;49.400;8.670;2023-05-07T16:00:25;2.60;;;1.50;;
12650;SDS011;6390;49.400;8.670;2023-05-07T16:02:52;1.20;;;1.10;;
12650;SDS011;6390;49.400;8.670;2023-05-07T16:07:47;4.40;;;1.38;;
12650;SDS011;6390;49.400;8.670;2023-05-07T16:10:13;1.67;;;1.42;;
12650;SDS011;6390;49.400;8.670;2023-05-07T16:12:40;2.90;;;1.33;;
12650;SDS011;6390;49.400;8.670;2023-05-07T16:15:06;2.50;;;1.15;;
12650;SDS011;6390;49.400;8.670;2023-05-07T16:17:33;1.63;;;1.20;;
12650;SDS011;6390;49.400;8.670;2023-05-07T16:19:59;1.55;;;1.20;;
12650;SDS011;6390;49.400;8.670;2023-05-07T16:22:26;2.13;;;1.20;;
12650;SDS011;6390;49.400;8.670;2023-05-07T16:24:53;2.78;;;1.33;;
12650;SDS011;6390;49.400;8.670;2023-05-07T16:27:20;2.53;;;1.30;;
12650;SDS011;6390;49.400;8.670;2023-05-07T16:29:46;2.80;;;1.05;;
12650;SDS011;6390;49.400;8.670;2023-05-07T16:32:12;1.10;;;1.05;;
12650;SDS011;6390;49.400;8.670;2023-05-07T16:34:38;1.35;;;1.00;;
12650;SDS011;6390;49.400;8.670;2023-05-07T16:37:04;1.45;;;1.00;;
12650;SDS011;6390;49.400;8.670;2023-05-07T16:39:31;0.93;;;0.90;;
12650;SDS011;6390;49.400;8.670;2023-05-07T16:41:57;1.60;;;1.10;;
12650;SDS011;6390;49.400;8.670;2023-05-07T16:44:24;1.30;;;1.13;;
12650;SDS011;6390;49.400;8.670;2023-05-07T16:46:50;1.33;;;1.15;;
12650;SDS011;6390;49.400;8.670;2023-05-07T16:49:17;0.85;;;0.80;;
12650;SDS011;6390;49.400;8.670;2023-05-07T16:51:43;1.40;;;1.23;;
12650;SDS011;6390;49.400;8.670;2023-05-07T16:54:10;3.80;;;0.80;;
12650;SDS011;6390;49.400;8.670;2023-05-07T16:56:36;1.30;;;1.20;;
12650;SDS011;6390;49.400;8.670;2023-05-07T16:59:03;2.08;;;1.27;;
12650;SDS011;6390;49.400;8.670;2023-05-07T17:01:29;1.45;;;1.10;;
12650;SDS011;6390;49.400;8.670;2023-05-07T17:03:56;1.30;;;1.20;;
12650;SDS011;6390;49.400;8.670;2023-05-07T17:06:23;1.05;;;0.95;;
12650;SDS011;6390;49.400;8.670;2023-05-07T17:08:49;1.90;;;1.40;;
12650;SDS011;6390;49.400;8.670;2023-05-07T17:11:15;1.27;;;1.17;;
12650;SDS011;6390;49.400;8.670;2023-05-07T17:13:41;1.45;;;1.10;;
12650;SDS011;6390;49.400;8.670;2023-05-07T17:16:07;1.10;;;1.00;;
12650;SDS011;6390;49.400;8.670;2023-05-07T17:18:34;0.90;;;0.90;;
12650;SDS011;6390;49.400;8.670;2023-05-07T17:21:00;2.17;;;0.98;;
12650;SDS011;6390;49.400;8.670;2023-05-07T17:23:26;1.95;;;1.10;;
12650;SDS011;6390;49.400;8.670;2023-05-07T17:25:52;1.85;;;1.10;;
12650;SDS011;6390;49.400;8.670;2023-05-07T17:28:18;0.95;;;0.95;;
12650;SDS011;6390;49.400;8.670;2023-05-07T17:30:45;1.98;;;1.15;;
12650;SDS011;6390;49.400;8.670;2023-05-07T17:33:12;2.08;;;1.17;;
12650;SDS011;6390;49.400;8.670;2023-05-07T17:35:38;1.23;;;1.10;;
12650;SDS011;6390;49.400;8.670;2023-05-07T17:38:04;1.27;;;1.17;;
12650;SDS011;6390;49.400;8.670;2023-05-07T17:40:30;2.03;;;1.20;;
12650;SDS011;6390;49.400;8.670;2023-05-07T17:42:57;1.65;;;1.27;;
12650;SDS011;6390;49.400;8.670;2023-05-07T17:45:23;1.95;;;1.75;;
12650;SDS011;6390;49.400;8.670;2023-05-07T17:47:49;2.70;;;2.05;;
12650;SDS011;6390;49.400;8.670;2023-05-07T17:50:15;1.60;;;1.50;;
12650;SDS011;6390;49.400;8.670;2023-05-07T17:52:41;1.50;;;1.40;;
12650;SDS011;6390;49.400;8.670;2023-05-07T17:55:07;3.85;;;1.60;;
12650;SDS011;6390;49.400;8.670;2023-05-07T17:57:34;1.40;;;1.30;;
12650;SDS011;6390;49.400;8.670;2023-05-07T18:00:01;1.40;;;1.30;;
12650;SDS011;6390;49.400;8.670;2023-05-07T18:02:31;1.88;;;1.52;;
12650;SDS011;6390;49.400;8.670;2023-05-07T18:04:57;1.33;;;1.20;;
12650;SDS011;6390;49.400;8.670;2023-05-07T18:07:23;1.73;;;1.63;;
12650;SDS011;6390;49.400;8.670;2023-05-07T18:09:49;2.28;;;1.30;;
12650;SDS011;6390;49.400;8.670;2023-05-07T18:12:16;1.63;;;1.38;;
12650;SDS011;6390;49.400;8.670;2023-05-07T18:14:42;1.58;;;1.40;;
12650;SDS011;6390;49.400;8.670;2023-05-07T18:17:08;2.08;;;1.48;;
12650;SDS011;6390;49.400;8.670;2023-05-07T18:19:35;3.78;;;1.98;;
12650;SDS011;6390;49.400;8.670;2023-05-07T18:22:01;1.73;;;1.60;;
12650;SDS011;6390;49.400;8.670;2023-05-07T18:24:28;1.67;;;1.40;;
12650;SDS011;6390;49.400;8.670;2023-05-07T18:26:54;2.20;;;1.75;;
12650;SDS011;6390;49.400;8.670;2023-05-07T18:29:20;1.70;;;1.60;;
12650;SDS011;6390;49.400;8.670;2023-05-07T18:31:46;1.58;;;1.48;;
12650;SDS011;6390;49.400;8.670;2023-05-07T18:34:12;1.73;;;1.60;;
12650;SDS011;6390;49.400;8.670;2023-05-07T18:36:38;1.60;;;1.50;;
12650;SDS011;6390;49.400;8.670;2023-05-07T18:39:04;1.70;;;1.50;;
12650;SDS011;6390;49.400;8.670;2023-05-07T18:41:32;2.25;;;1.60;;
12650;SDS011;6390;49.400;8.670;2023-05-07T18:43:59;2.72;;;1.70;;
12650;SDS011;6390;49.400;8.670;2023-05-07T18:46:25;1.67;;;1.58;;
12650;SDS011;6390;49.400;8.670;2023-05-07T18:48:53;1.70;;;1.52;;
12650;SDS011;6390;49.400;8.670;2023-05-07T18:51:19;1.63;;;1.52;;